Terminal Aerodrome Forecast
Issued by NWS

Current Version | Previous Version | Graphics & Text | Print | Product List | Glossary On
Versions: 1 2 3 4 5 6 7 8 9 10 11 12 13 14 15 16 17 18 19 20 21 22 23 24 25
000
FTUS41 KRLX 151517 AAA
TAFCKB
TAF AMD
KCKB 151517Z 1515/1612 13004KT P6SM OVC035
      TEMPO 1515/1518 3SM -SN OVC025
     FM151800 17008KT P6SM BKN060
     FM160200 17004KT P6SM OVC050
     FM160500 18005KT 3SM -SN OVC025
     FM160600 19005KT 3SM -SN OVC015
     FM160700 19005KT 1 1/2SM -SN OVC010
     FM160800 19005KT 1/2SM SN OVC008=

USA.gov is the U.S. government's official web portal to all federal, state and local government web resources and services.